createdAt,value
2018-05-01T00:00:34.639Z,62.20
2018-05-01T00:03:02.815Z,61.50
2018-05-01T00:05:31.028Z,61.20
2018-05-01T00:07:59.219Z,60.70
2018-05-01T00:10:27.368Z,60.70
2018-05-01T00:12:55.542Z,60.50
2018-05-01T00:15:23.695Z,61.00
2018-05-01T00:17:52.692Z,61.70
2018-05-01T00:20:20.847Z,61.70
2018-05-01T00:22:49.027Z,62.30
2018-05-01T00:25:17.190Z,62.70
2018-05-01T00:27:45.407Z,62.20
2018-05-01T00:30:13.556Z,62.50
2018-05-01T00:32:41.721Z,62.40
2018-05-01T00:35:09.889Z,62.20
2018-05-01T00:37:38.119Z,62.70
2018-05-01T00:40:06.287Z,62.00
2018-05-01T00:42:34.434Z,62.70
2018-05-01T00:45:02.616Z,62.50
2018-05-01T00:47:30.933Z,63.00
2018-05-01T00:49:59.107Z,61.70
2018-05-01T00:52:39.245Z,61.60
2018-05-01T00:55:07.419Z,61.60
2018-05-01T00:57:35.694Z,61.30
2018-05-01T01:00:03.872Z,61.40
2018-05-01T01:02:32.018Z,61.00
2018-05-01T01:05:00.191Z,61.30
2018-05-01T01:07:28.399Z,61.30
2018-05-01T01:09:56.581Z,61.80
2018-05-01T01:12:24.824Z,61.60
2018-05-01T01:14:53.000Z,61.50
2018-05-01T01:17:21.192Z,61.10
2018-05-01T01:19:49.358Z,62.20
2018-05-01T01:22:17.506Z,62.90
2018-05-01T01:24:45.674Z,63.20
2018-05-01T01:27:13.819Z,62.60
2018-05-01T01:29:42.768Z,62.80
2018-05-01T01:32:14.906Z,62.80
2018-05-01T01:34:43.113Z,62.70
2018-05-01T01:37:10.778Z,62.80
2018-05-01T01:39:38.460Z,62.00
2018-05-01T01:42:06.139Z,62.00
2018-05-01T01:44:34.591Z,63.00
2018-05-01T01:47:02.376Z,63.00
2018-05-01T01:49:30.059Z,62.40
2018-05-01T01:51:58.500Z,63.00
2018-05-01T01:54:26.184Z,63.00
2018-05-01T01:56:53.939Z,63.20
2018-05-01T01:59:21.624Z,63.20
2018-05-01T02:01:50.047Z,64.30
2018-05-01T02:04:17.731Z,64.30
2018-05-01T02:06:45.524Z,64.10
2018-05-01T02:09:13.967Z,63.90
2018-05-01T02:11:41.633Z,63.80
2018-05-01T02:14:09.324Z,64.30
2018-05-01T02:16:37.079Z,64.50
2018-05-01T02:19:04.766Z,64.70
2018-05-01T02:21:32.431Z,63.80
2018-05-01T02:24:00.125Z,64.00
2018-05-01T02:26:27.830Z,64.00
2018-05-01T02:28:57.034Z,65.10
2018-05-01T02:31:24.692Z,65.10
2018-05-01T02:33:52.353Z,64.80
2018-05-01T02:36:20.148Z,64.90
2018-05-01T02:38:47.820Z,64.30
2018-05-01T02:41:15.552Z,64.50
2018-05-01T02:43:43.169Z,66.10
2018-05-01T02:46:11.110Z,64.90
2018-05-01T02:48:38.768Z,65.30
2018-05-01T02:51:06.445Z,65.80
2018-05-01T02:53:34.109Z,64.50
2018-05-01T02:56:04.167Z,64.70
2018-05-01T02:58:31.831Z,64.70
2018-05-01T03:00:59.521Z,63.60
2018-05-01T03:03:27.948Z,65.00
2018-05-01T03:05:55.676Z,64.10
2018-05-01T03:08:23.339Z,64.40
2018-05-01T03:10:51.028Z,64.50
2018-05-01T03:13:18.688Z,64.20
2018-05-01T03:15:47.192Z,64.80
2018-05-01T03:18:14.855Z,64.80
2018-05-01T03:20:42.540Z,64.70
2018-05-01T03:23:10.199Z,64.10
2018-05-01T03:25:38.011Z,64.10
2018-05-01T03:28:05.666Z,64.10
2018-05-01T03:30:33.352Z,64.00
2018-05-01T03:33:01.012Z,64.30
2018-05-01T03:35:29.519Z,64.90
2018-05-01T03:37:57.179Z,64.90
2018-05-01T03:40:24.867Z,65.10
2018-05-01T03:42:52.534Z,64.50
2018-05-01T03:45:21.095Z,65.00
2018-05-01T03:47:48.760Z,65.00
2018-05-01T03:50:16.452Z,64.70
2018-05-01T03:52:44.875Z,64.00
2018-05-01T03:55:13.376Z,64.30
2018-05-01T03:57:41.040Z,63.40
2018-05-01T04:00:08.733Z,62.90
2018-05-01T04:02:37.174Z,63.40
2018-05-01T04:05:05.046Z,63.40
2018-05-01T04:07:32.698Z,63.40
2018-05-01T04:10:00.374Z,63.60
2018-05-01T04:12:28.035Z,63.50
2018-05-01T04:14:55.988Z,63.80
2018-05-01T04:17:23.562Z,63.30
2018-05-01T04:19:51.245Z,64.30
2018-05-01T04:22:18.916Z,64.40
2018-05-01T04:24:46.677Z,65.70
2018-05-01T04:27:14.360Z,65.60
2018-05-01T04:29:42.792Z,64.60
2018-05-01T04:32:10.467Z,64.50
2018-05-01T04:34:38.122Z,64.90
2018-05-01T04:37:05.800Z,64.90
2018-05-01T04:39:33.456Z,65.10
2018-05-01T04:42:01.140Z,65.80
2018-05-01T04:44:29.562Z,65.40
2018-05-01T04:46:57.243Z,65.30
2018-05-01T04:49:24.899Z,65.90
2018-05-01T04:51:52.600Z,66.30
2018-05-01T04:54:21.139Z,66.60
2018-05-01T04:56:48.819Z,66.60
2018-05-01T04:59:16.491Z,67.30
2018-05-01T05:01:44.187Z,68.00
2018-05-01T05:04:11.939Z,68.20
2018-05-01T05:06:39.621Z,68.70
2018-05-01T05:09:08.051Z,68.90
2018-05-01T05:11:35.744Z,68.90
2018-05-01T05:14:04.385Z,70.20
2018-05-01T05:16:32.054Z,70.20
2018-05-01T05:18:59.723Z,69.70
2018-05-01T05:21:27.695Z,69.70
2018-05-01T05:23:55.779Z,70.00
2018-05-01T05:26:23.463Z,69.90
2018-05-01T05:28:52.028Z,70.50
2018-05-01T05:31:19.711Z,70.40
2018-05-01T05:33:48.131Z,69.80
2018-05-01T05:36:15.878Z,69.80
2018-05-01T05:38:43.485Z,71.60
2018-05-01T05:41:11.167Z,72.90
2018-05-01T05:43:38.944Z,69.20
2018-05-01T05:46:07.396Z,69.70
2018-05-01T05:48:35.060Z,69.70
2018-05-01T05:51:02.746Z,69.70
2018-05-01T05:53:30.608Z,70.20
2018-05-01T05:55:58.294Z,70.40
2018-05-01T05:58:25.956Z,72.00
2018-05-01T06:00:53.657Z,72.10
2018-05-01T06:03:21.464Z,71.80
2018-05-01T06:05:49.150Z,71.80
2018-05-01T06:08:16.811Z,72.90
2018-05-01T06:10:44.476Z,73.00
2018-05-01T06:13:12.231Z,71.80
2018-05-01T06:15:40.658Z,73.10
2018-05-01T06:18:08.413Z,73.10
2018-05-01T06:20:36.791Z,74.20
2018-05-01T06:23:05.376Z,74.20
2018-05-01T06:25:33.035Z,74.40
2018-05-01T06:28:00.715Z,73.70
2018-05-01T06:30:28.371Z,73.70
2018-05-01T06:32:56.079Z,73.70
2018-05-01T06:35:23.773Z,74.60
2018-05-01T06:37:51.475Z,76.00
2018-05-01T06:40:19.152Z,75.00
2018-05-01T06:42:46.939Z,74.80
2018-05-01T06:45:15.363Z,75.00
2018-05-01T06:47:43.048Z,75.00
2018-05-01T06:50:10.720Z,74.40
2018-05-01T06:52:38.411Z,73.60
2018-05-01T06:55:06.841Z,75.20
2018-05-01T06:57:34.522Z,75.10
2018-05-01T07:00:02.189Z,75.80
2018-05-01T07:02:29.974Z,75.50
2018-05-01T07:04:58.398Z,75.50
2018-05-01T07:07:26.092Z,75.40
2018-05-01T07:09:53.750Z,75.20
2018-05-01T07:12:22.324Z,76.00
2018-05-01T07:14:49.980Z,75.80
2018-05-01T07:17:17.659Z,76.60
2018-05-01T07:19:45.315Z,76.80
2018-05-01T07:22:13.114Z,77.60
2018-05-01T07:24:41.555Z,79.50
2018-05-01T07:27:09.236Z,79.50
2018-05-01T07:29:36.891Z,77.90
2018-05-01T07:32:04.696Z,77.40
2018-05-01T07:34:32.362Z,78.00
2018-05-01T07:37:00.056Z,77.60
2018-05-01T07:39:27.785Z,77.30
2018-05-01T07:41:57.152Z,77.20
2018-05-01T07:44:24.824Z,77.20
2018-05-01T07:46:52.508Z,77.80
2018-05-01T07:49:20.184Z,77.90
2018-05-01T07:51:47.865Z,78.10
2018-05-01T07:54:15.579Z,78.20
2018-05-01T07:56:44.024Z,75.40
2018-05-01T07:59:11.737Z,75.30
2018-05-01T08:01:40.251Z,77.30
2018-05-01T08:04:07.944Z,77.30
2018-05-01T08:06:35.619Z,76.50
2018-05-01T08:09:04.083Z,77.50
2018-05-01T08:11:31.907Z,77.40
2018-05-01T08:13:59.604Z,76.80
2018-05-01T08:16:27.295Z,76.50
2018-05-01T08:18:55.767Z,76.30
2018-05-01T08:21:23.477Z,76.30
2018-05-01T08:23:51.183Z,76.60
2018-05-01T08:26:18.975Z,76.60
2018-05-01T08:28:46.693Z,77.10
2018-05-01T08:31:14.436Z,76.80
2018-05-01T08:33:42.144Z,76.70
2018-05-01T08:36:10.603Z,77.30
2018-05-01T08:38:38.309Z,77.20
2018-05-01T08:41:06.112Z,76.60
2018-05-01T08:43:33.828Z,76.70
2018-05-01T08:46:02.279Z,74.90
2018-05-01T08:48:29.996Z,75.00
2018-05-01T08:50:57.774Z,75.10
2018-05-01T08:53:25.524Z,75.00
2018-05-01T08:55:53.204Z,75.40
2018-05-01T08:58:20.918Z,74.00
2018-05-01T09:00:49.374Z,72.80
2018-05-01T09:03:17.093Z,72.80
2018-05-01T09:05:44.810Z,71.70
2018-05-01T09:08:12.520Z,71.90
2018-05-01T09:10:40.404Z,73.60
2018-05-01T09:13:08.120Z,72.30
2018-05-01T09:15:36.580Z,73.10
2018-05-01T09:18:04.404Z,73.10
2018-05-01T09:20:32.080Z,72.50
2018-05-01T09:22:59.912Z,73.30
2018-05-01T09:25:27.578Z,73.70
2018-05-01T09:27:55.284Z,74.40
2018-05-01T09:30:23.045Z,74.60
2018-05-01T09:32:50.743Z,74.80
2018-05-01T09:35:19.278Z,75.00
2018-05-01T09:37:46.932Z,75.00
2018-05-01T09:40:14.925Z,74.40
2018-05-01T09:42:42.612Z,74.50
2018-05-01T09:45:10.310Z,74.90
2018-05-01T09:47:38.002Z,74.00
2018-05-01T09:50:05.783Z,74.10
2018-05-01T09:52:33.959Z,73.60
2018-05-01T09:55:02.152Z,73.90
2018-05-01T09:57:30.339Z,73.60
2018-05-01T09:59:58.563Z,73.30
2018-05-01T10:02:26.744Z,72.40
2018-05-01T10:04:54.926Z,73.40
2018-05-01T10:07:23.106Z,72.30
2018-05-01T10:09:52.100Z,70.60
2018-05-01T10:12:20.377Z,71.10
2018-05-01T10:14:48.491Z,70.00
2018-05-01T10:17:17.432Z,69.50
2018-05-01T10:19:46.550Z,69.50
2018-05-01T10:22:14.724Z,70.20
2018-05-01T10:24:42.914Z,69.10
2018-05-01T10:27:11.851Z,67.90
2018-05-01T10:29:40.126Z,67.70
2018-05-01T10:32:08.303Z,66.00
2018-05-01T10:34:36.493Z,64.30
2018-05-01T10:37:04.680Z,64.10
2018-05-01T10:39:32.946Z,63.10
2018-05-01T10:42:01.123Z,64.10
2018-05-01T10:44:29.328Z,64.90
2018-05-01T10:46:57.511Z,64.30
2018-05-01T10:49:25.867Z,64.90
2018-05-01T10:51:54.022Z,65.90
2018-05-01T10:54:22.203Z,66.00
2018-05-01T10:56:50.374Z,63.80
2018-05-01T10:59:18.576Z,62.70
2018-05-01T11:01:46.741Z,62.20
2018-05-01T11:04:14.943Z,62.50
2018-05-01T11:06:43.887Z,61.20
2018-05-01T11:09:12.140Z,61.20
2018-05-01T11:11:40.317Z,62.50
2018-05-01T11:14:08.516Z,61.20
2018-05-01T11:16:36.683Z,64.20
2018-05-01T11:19:04.951Z,62.00
2018-05-01T11:21:33.145Z,63.30
2018-05-01T11:24:01.349Z,62.60
2018-05-01T11:26:30.300Z,61.50
2018-05-01T11:28:58.539Z,61.40
2018-05-01T11:31:26.768Z,61.20
2018-05-01T11:33:54.936Z,59.50
2018-05-01T11:36:23.924Z,58.00
2018-05-01T11:38:52.162Z,58.00
2018-05-01T11:41:20.368Z,59.20
2018-05-01T11:43:48.556Z,59.20
2018-05-01T11:46:16.746Z,55.60
2018-05-01T11:48:45.507Z,55.50
2018-05-01T11:51:13.805Z,56.40
2018-05-01T11:53:42.831Z,56.20
2018-05-01T11:56:11.031Z,56.10
2018-05-01T11:58:39.332Z,54.10
2018-05-01T12:01:07.832Z,55.50
2018-05-01T12:03:36.115Z,55.20
2018-05-01T12:06:05.080Z,54.50
2018-05-01T12:08:33.518Z,54.50
2018-05-01T12:11:02.058Z,53.70
2018-05-01T12:13:31.177Z,53.30
2018-05-01T12:15:59.837Z,53.80
2018-05-01T12:18:29.479Z,49.70
2018-05-01T12:20:58.127Z,50.00
2018-05-01T12:23:26.711Z,47.60
2018-05-01T12:25:55.699Z,48.50
2018-05-01T12:28:24.235Z,49.40
2018-05-01T12:30:52.471Z,49.80
2018-05-01T12:33:20.834Z,51.50
2018-05-01T12:35:49.388Z,50.30
2018-05-01T12:38:17.803Z,51.40
2018-05-01T12:40:46.074Z,52.00
2018-05-01T12:43:16.289Z,50.90
2018-05-01T12:45:45.385Z,50.60
2018-05-01T12:48:13.690Z,50.50
2018-05-01T12:50:41.826Z,51.90
2018-05-01T12:53:10.106Z,49.60
2018-05-01T12:55:39.121Z,50.10
2018-05-01T12:58:07.432Z,51.00
2018-05-01T13:00:35.754Z,48.80
2018-05-01T13:03:05.428Z,49.20
2018-05-01T13:05:33.618Z,49.10
2018-05-01T13:08:03.307Z,50.10
2018-05-01T13:10:31.522Z,50.10
2018-05-01T13:13:00.494Z,49.20
2018-05-01T13:15:28.707Z,49.30
2018-05-01T13:17:56.898Z,48.90
2018-05-01T13:20:25.147Z,50.30
2018-05-01T13:22:54.095Z,50.60
2018-05-01T13:25:22.299Z,50.50
2018-05-01T13:27:50.479Z,49.70
2018-05-01T13:30:19.468Z,48.80
2018-05-01T13:32:47.759Z,48.70
2018-05-01T13:35:16.695Z,50.40
2018-05-01T13:37:44.985Z,50.40
2018-05-01T13:40:13.177Z,48.30
2018-05-01T13:42:42.996Z,48.30
2018-05-01T13:45:11.215Z,48.30
2018-05-01T13:47:39.403Z,47.40
2018-05-01T13:50:07.581Z,47.80
2018-05-01T13:52:35.895Z,47.80
2018-05-01T13:55:04.068Z,47.40
2018-05-01T13:57:32.319Z,47.00
2018-05-01T14:00:00.504Z,46.50
2018-05-01T14:02:29.499Z,46.60
2018-05-01T14:04:59.192Z,46.60
2018-05-01T14:07:27.564Z,46.50
2018-05-01T14:09:55.742Z,47.20
2018-05-01T14:12:23.947Z,46.70
2018-05-01T14:14:52.129Z,48.20
2018-05-01T14:17:21.935Z,48.20
2018-05-01T14:19:50.294Z,48.20
2018-05-01T14:22:19.998Z,48.10
2018-05-01T14:24:49.814Z,48.30
2018-05-01T14:27:18.825Z,48.30
2018-05-01T14:29:47.056Z,47.80
2018-05-01T14:32:15.263Z,46.20
2018-05-01T14:34:43.472Z,47.30
2018-05-01T14:37:11.791Z,47.20
2018-05-01T14:39:39.980Z,46.50
2018-05-01T14:42:09.155Z,49.10
2018-05-01T14:44:38.040Z,48.20
2018-05-01T14:47:06.321Z,48.00
2018-05-01T14:49:34.521Z,48.00
2018-05-01T14:52:02.745Z,47.50
2018-05-01T14:54:30.914Z,48.90
2018-05-01T14:56:59.281Z,50.80
2018-05-01T14:59:27.466Z,50.20
2018-05-01T15:01:56.807Z,50.10
2018-05-01T15:04:25.044Z,50.10
2018-05-01T15:06:53.328Z,51.00
2018-05-01T15:09:21.655Z,49.20
2018-05-01T15:11:50.037Z,49.80
2018-05-01T15:14:18.243Z,49.60
2018-05-01T15:16:46.643Z,50.60
2018-05-01T15:19:14.850Z,49.10
2018-05-01T15:21:43.048Z,49.30
2018-05-01T15:24:12.025Z,49.50
2018-05-01T15:26:40.408Z,49.50
2018-05-01T15:29:08.648Z,49.40
2018-05-01T15:31:36.841Z,49.60
2018-05-01T15:34:05.440Z,49.80
2018-05-01T15:36:33.782Z,50.60
2018-05-01T15:39:02.006Z,51.20
2018-05-01T15:41:30.961Z,52.00
2018-05-01T15:43:59.177Z,52.00
2018-05-01T15:46:27.379Z,52.50
2018-05-01T15:48:55.580Z,52.50
2018-05-01T15:51:23.771Z,51.50
2018-05-01T15:53:52.754Z,52.10
2018-05-01T15:56:20.983Z,52.00
2018-05-01T15:58:49.201Z,52.00
2018-05-01T16:01:17.383Z,51.40
2018-05-01T16:03:45.594Z,51.30
2018-05-01T16:06:13.774Z,52.20
2018-05-01T16:08:41.998Z,51.60
2018-05-01T16:11:10.180Z,50.30
2018-05-01T16:13:38.387Z,51.10
2018-05-01T16:16:08.187Z,51.70
2018-05-01T16:18:37.146Z,52.60
2018-05-01T16:21:05.328Z,51.90
2018-05-01T16:23:33.515Z,50.20
2018-05-01T16:26:01.737Z,50.90
2018-05-01T16:28:29.932Z,52.20
2018-05-01T16:30:58.112Z,53.50
2018-05-01T16:33:26.313Z,53.10
2018-05-01T16:35:54.576Z,51.50
2018-05-01T16:38:23.476Z,53.30
2018-05-01T16:40:51.656Z,53.30
2018-05-01T16:43:19.844Z,54.30
2018-05-01T16:45:48.048Z,53.60
2018-05-01T16:48:16.239Z,53.40
2018-05-01T16:50:44.415Z,52.60
2018-05-01T16:53:12.616Z,53.00
2018-05-01T16:55:40.787Z,53.00
2018-05-01T16:58:08.991Z,53.50
2018-05-01T17:00:37.945Z,54.20
2018-05-01T17:03:06.138Z,54.30
2018-05-01T17:05:34.383Z,53.70
2018-05-01T17:08:02.508Z,52.80
2018-05-01T17:10:31.459Z,54.40
2018-05-01T17:12:59.667Z,53.90
2018-05-01T17:15:27.848Z,54.00
2018-05-01T17:17:56.014Z,54.30
2018-05-01T17:20:24.206Z,54.90
2018-05-01T17:22:53.147Z,55.00
2018-05-01T17:25:21.415Z,55.00
2018-05-01T17:27:49.615Z,55.00
2018-05-01T17:30:17.868Z,54.70
2018-05-01T17:32:46.035Z,54.00
2018-05-01T17:35:14.326Z,54.50
2018-05-01T17:37:42.495Z,55.00
2018-05-01T17:40:10.690Z,54.90
2018-05-01T17:42:38.875Z,55.70
2018-05-01T17:45:07.119Z,55.70
2018-05-01T17:47:35.308Z,56.00
2018-05-01T17:50:03.509Z,56.30
2018-05-01T17:52:31.669Z,56.00
2018-05-01T17:54:59.911Z,56.70
2018-05-01T17:57:28.145Z,57.10
2018-05-01T17:59:56.299Z,56.80
2018-05-01T18:02:24.475Z,56.80
2018-05-01T18:04:52.751Z,57.90
2018-05-01T18:07:20.936Z,58.40
2018-05-01T18:09:49.125Z,59.10
2018-05-01T18:12:18.063Z,60.40
2018-05-01T18:14:46.344Z,60.30
2018-05-01T18:17:14.518Z,61.10
2018-05-01T18:19:42.718Z,62.10
2018-05-01T18:22:11.588Z,63.30
2018-05-01T18:24:39.855Z,61.40
2018-05-01T18:27:08.033Z,61.60
2018-05-01T18:29:36.244Z,62.80
2018-05-01T18:32:04.422Z,64.00
2018-05-01T18:34:32.655Z,64.40
2018-05-01T18:37:00.833Z,64.00
2018-05-01T18:39:29.030Z,63.70
2018-05-01T18:41:57.208Z,64.20
2018-05-01T18:44:25.493Z,65.00
2018-05-01T18:46:53.660Z,64.60
2018-05-01T18:49:21.940Z,65.10
2018-05-01T18:51:50.108Z,64.70
2018-05-01T18:54:18.360Z,65.40
2018-05-01T18:56:46.532Z,65.50
2018-05-01T18:59:14.723Z,66.70
2018-05-01T19:01:42.904Z,67.20
2018-05-01T19:04:11.284Z,66.50
2018-05-01T19:06:39.468Z,66.80
2018-05-01T19:09:07.638Z,67.20
2018-05-01T19:11:35.835Z,67.60
2018-05-01T19:14:04.039Z,68.10
2018-05-01T19:16:32.258Z,68.30
2018-05-01T19:19:00.432Z,67.00
2018-05-01T19:21:28.640Z,66.60
2018-05-01T19:23:56.956Z,67.60
2018-05-01T19:26:25.143Z,67.60
2018-05-01T19:28:53.319Z,67.70
2018-05-01T19:31:21.517Z,68.00
2018-05-01T19:33:49.738Z,67.40
2018-05-01T19:36:17.937Z,68.20
2018-05-01T19:38:46.117Z,68.10
2018-05-01T19:41:14.312Z,68.20
2018-05-01T19:43:42.627Z,69.30
2018-05-01T19:46:10.833Z,69.70
2018-05-01T19:48:39.002Z,70.20
2018-05-01T19:51:07.224Z,70.40
2018-05-01T19:53:35.431Z,70.40
2018-05-01T19:56:03.631Z,70.10
2018-05-01T19:58:31.808Z,69.00
2018-05-01T20:01:00.012Z,68.70
2018-05-01T20:03:28.319Z,68.50
2018-05-01T20:05:56.463Z,69.10
2018-05-01T20:08:24.638Z,70.00
2018-05-01T20:10:52.853Z,70.20
2018-05-01T20:13:21.176Z,69.40
2018-05-01T20:15:49.343Z,69.70
2018-05-01T20:18:17.525Z,67.60
2018-05-01T20:20:45.715Z,68.80
2018-05-01T20:23:13.903Z,69.50
2018-05-01T20:25:42.849Z,71.00
2018-05-01T20:28:11.048Z,70.90
2018-05-01T20:30:39.240Z,68.70
2018-05-01T20:33:08.200Z,71.20
2018-05-01T20:35:36.380Z,71.10
2018-05-01T20:38:04.575Z,71.50
2018-05-01T20:40:33.532Z,72.70
2018-05-01T20:43:01.797Z,72.70
2018-05-01T20:45:29.973Z,72.50
2018-05-01T20:47:58.168Z,72.90
2018-05-01T20:50:26.347Z,73.00
2018-05-01T20:52:54.601Z,73.90
2018-05-01T20:55:22.783Z,74.40
2018-05-01T20:57:50.984Z,73.90
2018-05-01T21:00:19.168Z,73.60
2018-05-01T21:02:47.392Z,72.70
2018-05-01T21:05:15.563Z,72.90
2018-05-01T21:07:43.759Z,74.90
2018-05-01T21:10:11.930Z,74.50
2018-05-01T21:12:40.203Z,74.20
2018-05-01T21:15:08.383Z,74.90
2018-05-01T21:17:36.570Z,74.40
2018-05-01T21:20:04.742Z,73.70
2018-05-01T21:22:33.756Z,74.30
2018-05-01T21:25:01.924Z,74.30
2018-05-01T21:27:30.110Z,74.20
2018-05-01T21:29:58.287Z,73.50
2018-05-01T21:32:26.608Z,73.40
2018-05-01T21:34:54.780Z,72.00
2018-05-01T21:37:22.968Z,72.20
2018-05-01T21:39:51.144Z,71.80
2018-05-01T21:42:19.399Z,70.60
2018-05-01T21:44:48.352Z,67.80
2018-05-01T21:47:16.520Z,67.80
2018-05-01T21:49:44.668Z,68.00
2018-05-01T21:52:12.902Z,66.70
2018-05-01T21:54:41.151Z,66.70
2018-05-01T21:57:09.311Z,65.10
2018-05-01T21:59:37.460Z,65.00
2018-05-01T22:02:05.696Z,64.10
2018-05-01T22:04:33.851Z,65.20
2018-05-01T22:07:02.020Z,64.80
2018-05-01T22:09:30.172Z,64.00
2018-05-01T22:11:58.495Z,63.80
2018-05-01T22:14:26.655Z,64.50
2018-05-01T22:16:54.819Z,64.10
2018-05-01T22:19:22.996Z,64.30
2018-05-01T22:21:51.379Z,63.60
2018-05-01T22:24:19.547Z,64.30
2018-05-01T22:26:47.719Z,64.60
2018-05-01T22:29:15.874Z,64.30
2018-05-01T22:31:44.838Z,63.60
2018-05-01T22:34:13.020Z,63.20
2018-05-01T22:36:41.199Z,63.70
2018-05-01T22:39:09.371Z,63.20
2018-05-01T22:41:37.592Z,63.50
2018-05-01T22:44:05.768Z,63.80
2018-05-01T22:46:33.919Z,63.60
2018-05-01T22:49:02.084Z,63.10
2018-05-01T22:51:31.046Z,62.00
2018-05-01T22:53:59.218Z,62.00
2018-05-01T22:56:28.131Z,62.90
2018-05-01T22:58:56.299Z,62.80
2018-05-01T23:01:25.288Z,62.10
2018-05-01T23:03:53.460Z,61.30
2018-05-01T23:06:21.620Z,60.80
2018-05-01T23:08:50.570Z,60.30
2018-05-01T23:11:18.859Z,60.20
2018-05-01T23:13:47.031Z,61.10
2018-05-01T23:16:15.183Z,60.50
2018-05-01T23:18:43.357Z,60.10
2018-05-01T23:21:11.551Z,60.70
2018-05-01T23:23:39.724Z,60.50
2018-05-01T23:26:07.876Z,60.60
2018-05-01T23:28:36.056Z,60.80
2018-05-01T23:31:05.024Z,60.80
2018-05-01T23:33:33.198Z,60.70
2018-05-01T23:36:01.342Z,61.30
2018-05-01T23:38:30.312Z,61.50
2018-05-01T23:40:58.492Z,61.40
2018-05-01T23:43:26.649Z,61.80
2018-05-01T23:45:54.818Z,62.60
2018-05-01T23:48:22.967Z,62.60
2018-05-01T23:50:51.144Z,62.20
2018-05-01T23:53:19.300Z,61.80
2018-05-01T23:55:47.458Z,62.00
2018-05-01T23:58:16.380Z,61.60
